Gulf - Port au Port: Past 24 Hour Conditions

 

Charlottetown Airport

10:00 PM ADT 29 July 2014
This table is a summary of hourly weather conditions for the past 24 hours.
Date / Time
(ADT)
Wind(knots) Conditions Visibility(km) Pressure(kPa) Air tempC) Relative humidity(%) Dew pointC) Humidex
29 July 2014
22:00 WSW 8 Mostly Cloudy 24 101.3 20 72 15 *
21:00 WSW 8 Mostly Cloudy 24 101.3 20 75 16 *
20:00 SW 10 Mostly Cloudy 24 101.2 22 73 17 28
19:00 SSW 14 gust 21 Mostly Cloudy 24 101.1 24 68 18 30
18:00 S 16 gust 23 Mostly Cloudy 24 101.0 25 64 18 31
17:00 S 19 gust 27 Mostly Cloudy 24 100.9 26 61 18 31
16:00 S 17 gust 23 Mostly Cloudy 24 100.8 27 59 18 33
15:00 SSW 20 gust 26 Partly Cloudy 24 100.8 27 58 18 32
14:00 S 19 gust 26 Partly Cloudy 24 100.8 27 63 19 34
13:00 S 22 gust 29 Partly Cloudy 24 100.7 26 68 19 33
12:00 S 20 gust 32 Partly Cloudy 24 100.7 25 75 20 32
11:00 S 20 gust 26 Partly Cloudy 24 100.7 24 80 20 31
10:00 S 14 gust 25 Mostly Cloudy 24 100.7 22 85 19 29
9:00 S 17 gust 23 Mostly Cloudy 24 100.7 23 84 20 30
8:00 S 14 gust 26 Cloudy 19 100.7 21 89 19 28
7:00 S 13 gust 19 Cloudy 19 100.6 21 89 19 28
6:00 S 16 gust 22 Cloudy 19 100.5 21 83 18 27
5:00 SSE 12 Mostly Cloudy 19 100.5 22 86 19 29
4:00 SSE 17 Mostly Cloudy 19 100.5 22 93 20 29
3:00 SSE 12 gust 19 Mostly Cloudy 19 100.5 22 93 21 30
2:00 SE 11 gust 17 Mostly Cloudy 16 100.5 22 91 21 31
1:00 SE 11 gust 18 Mostly Cloudy 19 100.6 22 92 21 30
0:00 SE 14 Mostly Cloudy 19 100.7 22 90 20 30
28 July 2014
23:00 SE 12 gust 20 Mostly Cloudy 24 100.7 22 88 20 29
22:00 SE 13 gust 22 Mostly Cloudy 24 100.8 23 84 20 30
 
Map of Atlantic - Maritimes marine weather areas East Scotia Slope - 44137 Southwestern Grand Banks - 44138 Banquereau - 44139 Laurentian Fan - 44141 LaHave Bank - 44150 Northeast Burgeo Bank - 44255 Halifax Harbour - 44258 Mont-Louis - 45138 Baie-Comeau Airport Havre-Saint-Pierre Airport Longue-Pointe-de-Mingan Sept-Îles Airport Cap-d'Espoir Rivière-la-Madeleine Gaspé Airport Heath Point La Pocatière Mont-Joli Airport New Carlisle Pointe-au-Père Port Menier Rivière-du-Loup Bas Caraquet Bathurst Airport Bouctouche AAFC Charlo Miramichi Fundy Park (Alma) Grand Manan Kouchibouguac Miscou Island Greater Moncton Int'l Airport Point Lepreau Saint John Airport St. Stephen Baccaro Point Beaver Island Brier Island Caribou Point Debert Grand Étang CFB Greenwood Hart Island Ingonish Beach Kentville AAFC Lunenburg McNabs Island Nappan AAFC North Mountain Parrsboro Sable Island St.Paul Island Shearwater Airport J.A. Douglas McCurdy Sydney Airport Tracadie Western Head Yarmouth Airport Charlottetown Airport East Point North Cape Summerside Burgeo Port aux Basques Sagona Island St. Lawrence Stephenville Airport Winterland Wreckhouse Île aux Perroquets Île Rouge Pointe-des-Monts Pointe-Noire Île Bicquette Cap-Chat Îles de la Madeleine Airport
Legend: buoyBuoy land stationLand Station » US Marine Weather